Time;durP1;ratioP1;P1;durP2;ratioP2;P2;SDS_P1;SDS_P2;PMS_P1;PMS_P2;Temp;Humidity;BMP_temperature;BMP_pressure;BME280_temperature;BME280_humidity;BME280_pressure;Samples;Min_cycle;Max_cycle;Signal;HPM_P1;HPM_P2
2022/06/10 00:00:52;;;;;;;4.30;3.30;;;;;;;24.32;47.77;94269.94;6155471;28;104301;-61
2022/06/10 00:03:55;;;;;;;3.50;3.20;;;;;;;24.28;48.62;94271.72;6142258;28;104061;-61
2022/06/10 00:07:00;;;;;;;3.00;2.63;;;;;;;24.24;48.44;94268.19;6136171;28;104133;-61
2022/06/10 00:10:04;;;;;;;3.13;2.83;;;;;;;24.29;48.28;94262.59;6135167;28;103772;-61
2022/06/10 00:13:08;;;;;;;3.43;2.77;;;;;;;24.28;48.12;94266.38;6143289;28;103203;-60
2022/06/10 00:16:11;;;;;;;3.33;3.13;;;;;;;24.21;48.51;94266.19;6146792;28;103145;-60
2022/06/10 00:19:14;;;;;;;3.20;2.90;;;;;;;24.24;48.30;94270.84;6136031;28;103076;-61
2022/06/10 00:22:19;;;;;;;3.10;2.90;;;;;;;24.26;48.41;94276.63;6149821;28;103960;-60
2022/06/10 00:25:23;;;;;;;3.23;2.93;;;;;;;24.30;48.38;94272.16;6134465;28;103444;-60
2022/06/10 00:28:26;;;;;;;3.43;3.10;;;;;;;24.32;48.32;94272.59;6139625;28;104297;-60
2022/06/10 00:31:29;;;;;;;3.30;3.10;;;;;;;24.34;48.50;94257.00;6142500;28;104287;-60
2022/06/10 00:34:35;;;;;;;3.63;3.33;;;;;;;24.30;48.91;94258.03;6147923;28;103067;-63
2022/06/10 00:37:39;;;;;;;4.20;3.43;;;;;;;24.30;48.96;94266.03;6144771;28;104539;-61
2022/06/10 00:40:47;;;;;;;3.60;3.40;;;;;;;24.27;48.54;94264.81;6142987;28;103494;-60
2022/06/10 00:43:50;;;;;;;3.37;3.17;;;;;;;24.23;48.97;94269.31;6162166;28;103267;-61
2022/06/10 00:46:54;;;;;;;3.30;3.00;;;;;;;24.18;48.91;94262.28;6144882;28;104240;-60
2022/06/10 00:50:01;;;;;;;4.00;3.70;;;;;;;24.21;49.21;94258.16;6153495;28;103302;-61
2022/06/10 00:53:11;;;;;;;6.23;3.80;;;;;;;24.03;49.05;94228.25;6154412;28;103329;-61
2022/06/10 00:56:19;;;;;;;4.33;3.93;;;;;;;24.07;49.59;94255.06;6138143;28;103169;-61
2022/06/10 00:59:24;;;;;;;3.53;3.23;;;;;;;24.05;49.72;94252.75;6130062;28;104236;-61
2022/06/10 01:02:31;;;;;;;3.60;3.20;;;;;;;24.14;49.44;94255.28;6138706;28;102923;-61
2022/06/10 01:05:34;;;;;;;4.10;3.70;;;;;;;24.09;49.33;94248.28;6146750;28;103952;-61
2022/06/10 01:08:40;;;;;;;3.63;3.40;;;;;;;24.19;49.14;94257.69;6151553;28;103300;-62
2022/06/10 01:11:53;;;;;;;3.47;3.27;;;;;;;24.22;48.92;94259.72;6158030;28;102785;-60
2022/06/10 01:15:11;;;;;;;3.47;3.17;;;;;;;24.18;49.44;94245.44;6148677;28;103190;-60
2022/06/10 01:18:29;;;;;;;3.60;3.27;;;;;;;24.09;49.49;94239.47;6161295;28;102996;-61
2022/06/10 01:22:02;;;;;;;3.20;3.00;;;;;;;24.06;49.53;94242.81;6145096;28;103845;-60
2022/06/10 01:25:38;;;;;;;3.50;3.20;;;;;;;24.03;49.48;94249.63;6138870;28;102938;-61
2022/06/10 01:29:03;;;;;;;3.90;3.53;;;;;;;23.97;49.75;94250.94;6137142;28;103203;-61
2022/06/10 01:32:11;;;;;;;3.50;3.20;;;;;;;24.03;49.32;94249.63;6152404;28;104373;-64
2022/06/10 01:35:20;;;;;;;3.57;3.27;;;;;;;24.02;49.39;94252.63;6157961;28;103126;-64
2022/06/10 01:38:33;;;;;;;3.40;3.20;;;;;;;23.90;49.78;94259.53;6142031;28;103303;-64
2022/06/10 01:41:46;;;;;;;3.73;3.43;;;;;;;23.89;50.11;94251.84;6139362;28;103281;-64
2022/06/10 01:44:56;;;;;;;3.37;3.07;;;;;;;23.98;49.58;94254.38;6128778;28;103094;-71
2022/06/10 01:48:04;;;;;;;3.97;3.57;;;;;;;23.91;50.45;94254.97;6144833;28;104293;-67
2022/06/10 01:51:13;;;;;;;3.97;3.60;;;;;;;23.85;50.24;94256.28;6157296;28;103690;-64
2022/06/10 01:54:24;;;;;;;3.60;3.30;;;;;;;23.81;50.18;94252.72;6143794;28;103859;-64
2022/06/10 01:57:30;;;;;;;3.90;3.60;;;;;;;23.75;50.35;94228.16;6148630;28;103308;-65
2022/06/10 02:00:37;;;;;;;4.73;4.40;;;;;;;24.02;49.74;94249.94;6140151;28;103316;-65
2022/06/10 02:03:44;;;;;;;5.60;5.20;;;;;;;24.07;49.61;94249.72;6141135;28;103033;-65
2022/06/10 02:06:52;;;;;;;4.13;3.83;;;;;;;24.10;49.52;94251.72;6128619;28;104123;-64
2022/06/10 02:10:02;;;;;;;3.67;3.37;;;;;;;24.16;49.10;94259.16;6159506;28;103234;-65
2022/06/10 02:13:10;;;;;;;4.20;3.80;;;;;;;24.17;49.35;94257.25;6155056;28;104092;-65
2022/06/10 02:16:19;;;;;;;4.47;3.87;;;;;;;24.17;49.15;94263.38;6142125;28;104456;-65
2022/06/10 02:19:26;;;;;;;3.90;3.60;;;;;;;24.17;49.24;94265.28;6129633;28;104118;-65
2022/06/10 02:22:37;;;;;;;6.03;5.53;;;;;;;24.18;48.92;94266.84;6150728;28;103269;-65
2022/06/10 02:25:45;;;;;;;6.80;6.20;;;;;;;24.09;48.98;94256.28;6161742;28;103652;-64
2022/06/10 02:28:54;;;;;;;5.37;4.93;;;;;;;24.22;48.76;94270.41;6141043;28;104051;-64
2022/06/10 02:32:00;;;;;;;4.17;3.87;;;;;;;24.21;48.90;94271.53;6153555;28;103154;-65
2022/06/10 02:35:08;;;;;;;4.10;3.80;;;;;;;24.18;49.00;94278.31;6158173;28;103038;-64
2022/06/10 02:38:16;;;;;;;4.17;3.87;;;;;;;24.10;49.04;94270.44;6159435;28;103325;-65
2022/06/10 02:41:28;;;;;;;3.73;3.43;;;;;;;24.07;48.94;94263.09;6148862;28;103478;-64
2022/06/10 02:44:48;;;;;;;4.20;3.80;;;;;;;24.19;48.75;94281.75;6158972;28;103284;-65
2022/06/10 02:47:57;;;;;;;4.40;3.90;;;;;;;24.18;49.21;94277.53;6161430;28;103161;-64
2022/06/10 02:51:02;;;;;;;4.10;3.80;;;;;;;24.14;49.28;94287.34;6137722;28;103453;-64
2022/06/10 02:54:08;;;;;;;4.30;4.00;;;;;;;24.09;49.16;94288.38;6155830;28;103564;-64
2022/06/10 02:57:14;;;;;;;3.57;3.27;;;;;;;24.09;49.20;94291.03;6150022;28;104104;-65
2022/06/10 03:04:01;;;;;;;4.00;3.60;;;;;;;23.95;49.30;94273.75;6127484;28;103125;-65
2022/06/10 03:07:32;;;;;;;5.20;2.93;;;;;;;23.99;49.56;94285.34;6137024;28;103063;-64
2022/06/10 03:10:45;;;;;;;4.17;3.77;;;;;;;23.95;49.44;94269.19;6137334;28;103600;-65
2022/06/10 03:14:02;;;;;;;5.23;3.80;;;;;;;24.09;49.05;94279.56;6133738;28;104309;-65
2022/06/10 03:17:15;;;;;;;4.00;3.70;;;;;;;23.99;49.44;94277.31;6135855;28;103315;-64
2022/06/10 03:20:23;;;;;;;5.40;3.97;;;;;;;24.09;49.07;94291.03;6136331;28;103096;-65
2022/06/10 03:23:39;;;;;;;4.10;3.70;;;;;;;24.12;48.96;94290.34;6137203;28;104634;-64
2022/06/10 03:26:50;;;;;;;4.30;3.90;;;;;;;24.15;49.00;94292.34;6127340;28;103318;-64
2022/06/10 03:30:01;;;;;;;4.57;4.17;;;;;;;24.07;48.93;94281.81;6137790;28;104316;-66
2022/06/10 03:33:12;;;;;;;7.40;4.57;;;;;;;24.16;49.28;94291.25;6136309;28;103234;-65
2022/06/10 03:36:18;;;;;;;3.97;3.67;;;;;;;24.09;49.38;94296.38;6131943;28;103243;-64
2022/06/10 03:39:24;;;;;;;5.00;4.10;;;;;;;24.10;49.15;94295.25;6152624;28;103962;-65
2022/06/10 03:42:28;;;;;;;6.20;3.90;;;;;;;24.14;51.32;94292.69;6141014;28;104208;-65
2022/06/10 03:45:36;;;;;;;5.40;4.57;;;;;;;24.10;52.14;94300.63;6144220;28;103256;-64
2022/06/10 03:48:43;;;;;;;5.53;5.00;;;;;;;24.15;50.38;94308.41;6126771;28;103945;-63
2022/06/10 03:51:47;;;;;;;4.67;4.27;;;;;;;24.16;50.95;94303.81;6153289;28;104452;-64
2022/06/10 03:54:51;;;;;;;4.77;4.37;;;;;;;24.13;50.65;94307.19;6149483;28;103103;-64
2022/06/10 03:57:54;;;;;;;5.00;4.50;;;;;;;24.19;49.82;94306.63;6153400;28;104198;-64
2022/06/10 04:00:59;;;;;;;5.57;5.07;;;;;;;24.21;50.10;94311.63;6134347;28;104057;-64
2022/06/10 04:04:02;;;;;;;5.70;4.53;;;;;;;24.15;50.09;94304.94;6162883;28;103241;-64
2022/06/10 04:07:06;;;;;;;7.30;4.83;;;;;;;23.95;50.05;94308.50;6140509;28;103099;-64
2022/06/10 04:10:15;;;;;;;7.57;4.47;;;;;;;24.12;50.88;94300.28;6135827;28;103017;-65
2022/06/10 04:13:20;;;;;;;4.80;4.40;;;;;;;24.23;51.38;94306.72;6152176;28;103997;-64
2022/06/10 04:16:23;;;;;;;4.13;3.83;;;;;;;24.30;51.49;94312.28;6160095;28;103533;-64
2022/06/10 04:19:26;;;;;;;11.63;5.03;;;;;;;24.24;50.58;94310.19;6157539;28;103043;-63
2022/06/10 04:22:30;;;;;;;5.60;5.10;;;;;;;23.95;50.59;94308.50;6131891;28;103620;-64
2022/06/10 04:25:36;;;;;;;5.40;5.00;;;;;;;23.97;50.96;94308.94;6139416;28;104656;-65
2022/06/10 04:28:39;;;;;;;8.10;7.50;;;;;;;24.03;49.93;94310.31;6137591;28;103137;-65
2022/06/10 04:31:43;;;;;;;7.00;6.40;;;;;;;24.04;50.26;94303.88;6137457;28;103962;-65
2022/06/10 04:34:46;;;;;;;6.27;5.63;;;;;;;24.05;50.48;94306.19;6127286;28;104249;-65
2022/06/10 04:37:49;;;;;;;6.63;6.03;;;;;;;24.04;49.93;94312.66;6136510;28;103080;-65
2022/06/10 04:40:54;;;;;;;5.53;5.03;;;;;;;24.05;49.88;94319.56;6138779;28;103104;-65
2022/06/10 04:43:57;;;;;;;5.73;5.00;;;;;;;24.02;50.15;94322.88;6139871;28;103177;-65
2022/06/10 04:47:02;;;;;;;5.00;4.50;;;;;;;24.04;50.14;94330.59;6129998;28;103087;-65
2022/06/10 04:50:07;;;;;;;6.53;5.80;;;;;;;24.07;50.11;94335.25;6139799;28;102712;-65
2022/06/10 04:53:12;;;;;;;8.47;7.67;;;;;;;24.08;50.41;94334.16;6141418;28;102960;-65
2022/06/10 04:56:16;;;;;;;8.50;7.80;;;;;;;24.07;50.21;94327.25;6183252;28;104124;-64
2022/06/10 04:59:19;;;;;;;5.73;5.33;;;;;;;24.06;50.34;94334.47;6185375;28;103113;-65
2022/06/10 05:02:22;;;;;;;6.00;5.50;;;;;;;24.07;50.48;94333.38;6189129;28;103218;-64
2022/06/10 05:05:26;;;;;;;6.10;5.60;;;;;;;24.03;50.46;94327.13;6188973;28;104176;-65
2022/06/10 05:08:29;;;;;;;6.97;6.43;;;;;;;24.05;50.48;94332.16;6176348;28;103035;-65
2022/06/10 05:11:34;;;;;;;6.20;5.60;;;;;;;24.04;50.66;94343.97;6188644;28;103298;-65
2022/06/10 05:14:37;;;;;;;5.33;4.87;;;;;;;23.97;50.88;94346.38;6188104;28;104102;-64
2022/06/10 05:17:41;;;;;;;5.37;4.97;;;;;;;23.92;50.60;94339.34;6188634;28;103219;-65
2022/06/10 05:20:46;;;;;;;6.23;5.63;;;;;;;23.94;50.69;94345.13;6177631;28;105181;-65
2022/06/10 05:23:49;;;;;;;8.03;6.20;;;;;;;23.96;50.59;94344.81;6188609;28;103123;-65
2022/06/10 05:26:53;;;;;;;5.30;4.90;;;;;;;23.97;50.77;94354.38;6188418;28;103182;-65
2022/06/10 05:29:56;;;;;;;6.17;5.70;;;;;;;23.96;51.25;94350.94;6182997;28;103002;-65
2022/06/10 05:33:00;;;;;;;6.47;6.07;;;;;;;23.96;51.01;94358.16;6182937;28;103334;-65
2022/06/10 05:36:03;;;;;;;13.43;12.17;;;;;;;23.94;51.32;94353.16;6187614;28;103236;-64
2022/06/10 05:39:07;;;;;;;9.97;9.10;;;;;;;23.94;51.22;94355.84;6187528;28;104704;-65
2022/06/10 05:42:12;;;;;;;8.63;7.93;;;;;;;23.95;50.96;94348.59;6177201;28;103261;-64
2022/06/10 05:45:17;;;;;;;7.20;6.60;;;;;;;23.94;51.73;94352.38;6187439;28;103147;-64
2022/06/10 05:48:21;;;;;;;7.30;6.73;;;;;;;23.93;51.65;94350.81;6188176;28;104507;-64
2022/06/10 05:51:24;;;;;;;7.23;6.60;;;;;;;23.90;51.67;94358.41;6187480;28;104360;-65
2022/06/10 05:54:27;;;;;;;6.90;6.30;;;;;;;23.89;51.69;94354.16;6164987;28;103514;-65
2022/06/10 05:57:32;;;;;;;6.30;5.80;;;;;;;23.91;51.63;94361.84;6162463;28;103219;-65
2022/06/10 06:00:35;;;;;;;5.90;5.50;;;;;;;23.89;51.58;94353.38;6163059;28;103228;-64
2022/06/10 06:03:38;;;;;;;6.47;5.97;;;;;;;23.89;51.94;94356.06;6162407;28;103011;-64
2022/06/10 06:06:43;;;;;;;6.33;5.83;;;;;;;23.82;52.09;94361.16;6151235;28;104011;-64
2022/06/10 06:09:46;;;;;;;6.30;5.80;;;;;;;23.72;52.60;94359.72;6161618;28;103379;-64
2022/06/10 06:12:51;;;;;;;6.00;5.60;;;;;;;23.44;53.69;94364.91;6161624;28;103032;-64
2022/06/10 06:15:54;;;;;;;6.10;5.70;;;;;;;23.41;53.43;94367.47;6152519;28;103057;-65
2022/06/10 06:18:57;;;;;;;7.40;6.80;;;;;;;23.40;53.73;94365.91;6161468;28;102954;-65
2022/06/10 06:22:01;;;;;;;12.83;11.83;;;;;;;23.54;53.24;94366.38;6161797;28;103233;-64
2022/06/10 06:25:15;;;;;;;8.20;7.50;;;;;;;23.29;54.48;94371.63;6162186;28;103159;-64
2022/06/10 06:28:20;;;;;;;6.73;6.03;;;;;;;23.15;54.59;94376.44;6151718;28;103986;-65
2022/06/10 06:31:23;;;;;;;6.73;6.00;;;;;;;23.12;54.82;94381.69;6161784;28;102873;-64
2022/06/10 06:34:26;;;;;;;6.20;5.80;;;;;;;23.09;54.76;94369.78;6161940;28;102999;-65
2022/06/10 06:37:30;;;;;;;5.73;5.33;;;;;;;23.07;55.06;94376.56;6161609;28;103099;-67
2022/06/10 06:40:33;;;;;;;6.13;5.63;;;;;;;23.29;54.13;94370.88;6150743;28;102951;-66
2022/06/10 06:43:38;;;;;;;5.90;5.40;;;;;;;23.40;53.91;94376.56;6161373;28;104262;-64
2022/06/10 06:46:43;;;;;;;5.37;4.97;;;;;;;23.49;53.26;94375.34;6162322;28;104192;-64
2022/06/10 06:49:46;;;;;;;5.40;4.90;;;;;;;23.58;53.12;94375.28;6155895;28;103034;-64
2022/06/10 06:52:49;;;;;;;5.80;5.40;;;;;;;23.65;52.79;94380.06;6157209;28;103226;-65
2022/06/10 06:55:52;;;;;;;6.30;5.80;;;;;;;23.67;53.34;94375.94;6184413;28;102873;-65
2022/06/10 06:58:57;;;;;;;5.93;5.47;;;;;;;23.71;52.80;94378.75;6186142;28;103591;-65
2022/06/10 07:02:00;;;;;;;5.47;5.07;;;;;;;23.69;53.18;94378.28;6176398;28;103592;-64
2022/06/10 07:05:04;;;;;;;8.13;5.57;;;;;;;23.70;52.67;94372.63;6185979;28;103446;-65
2022/06/10 07:08:07;;;;;;;7.50;5.37;;;;;;;23.73;52.57;94374.63;6186236;28;103305;-64
2022/06/10 07:11:10;;;;;;;7.00;6.23;;;;;;;23.75;52.84;94377.75;6185760;28;103763;-64
2022/06/10 07:14:16;;;;;;;6.10;5.67;;;;;;;23.75;52.86;94382.31;6174665;28;103327;-64
2022/06/10 07:17:19;;;;;;;5.60;5.20;;;;;;;23.75;52.95;94375.09;6185990;28;102658;-65
2022/06/10 07:20:27;;;;;;;6.50;5.90;;;;;;;23.74;52.78;94378.09;6185428;28;103052;-64
2022/06/10 07:23:30;;;;;;;6.00;5.60;;;;;;;23.75;52.84;94383.09;6181552;28;104460;-64
2022/06/10 07:26:33;;;;;;;7.60;7.00;;;;;;;23.76;52.38;94373.97;6180722;28;102991;-65
2022/06/10 07:29:38;;;;;;;11.50;6.73;;;;;;;23.78;52.21;94378.97;6185461;28;103118;-64
2022/06/10 07:32:41;;;;;;;7.13;6.57;;;;;;;23.79;52.56;94388.56;6186671;28;104232;-64
2022/06/10 07:35:44;;;;;;;6.83;6.33;;;;;;;23.76;52.84;94387.31;6175408;28;103231;-65
2022/06/10 07:38:47;;;;;;;6.73;5.43;;;;;;;23.78;52.67;94387.78;6186008;28;103457;-65
2022/06/10 07:42:01;;;;;;;6.63;6.13;;;;;;;23.80;52.53;94388.22;6184404;28;103237;-65
2022/06/10 07:45:06;;;;;;;6.57;6.07;;;;;;;23.80;52.27;94384.75;6186127;28;104316;-65
2022/06/10 07:48:10;;;;;;;6.00;5.60;;;;;;;23.79;52.49;94381.31;6176479;28;104132;-65
2022/06/10 07:51:14;;;;;;;5.90;5.50;;;;;;;23.82;52.18;94377.97;6185204;28;103550;-65
2022/06/10 07:54:18;;;;;;;6.20;5.70;;;;;;;23.86;52.36;94386.91;6175183;28;102917;-65
2022/06/10 07:57:21;;;;;;;6.03;5.47;;;;;;;23.88;52.03;94395.38;6158000;28;103556;-65
2022/06/10 08:00:26;;;;;;;6.23;5.77;;;;;;;23.89;52.13;94388.91;6154024;28;103546;-66
2022/06/10 08:03:30;;;;;;;5.20;4.80;;;;;;;23.93;51.67;94390.91;6160495;28;103212;-64
2022/06/10 08:06:35;;;;;;;5.90;5.50;;;;;;;23.99;51.98;94392.25;6160777;28;102793;-64
2022/06/10 08:09:38;;;;;;;5.87;5.40;;;;;;;24.02;51.57;94388.94;6151687;28;104150;-63
2022/06/10 08:12:41;;;;;;;5.60;5.20;;;;;;;24.05;52.19;94390.94;6159056;28;103356;-64
2022/06/10 08:15:47;;;;;;;6.60;6.20;;;;;;;24.06;52.62;94392.50;6160890;28;103105;-64
2022/06/10 08:18:51;;;;;;;6.20;5.70;;;;;;;24.04;52.73;94394.75;6160550;28;104206;-64
2022/06/10 08:25:15;;;;;;;5.77;5.37;;;;;;;24.11;52.28;94394.94;6160217;28;104234;-63
2022/06/10 08:28:18;;;;;;;6.30;5.80;;;;;;;24.18;52.03;94400.50;6159965;28;103442;-64
2022/06/10 08:31:22;;;;;;;6.33;5.70;;;;;;;24.17;52.42;94393.59;6159526;28;103699;-64
2022/06/10 08:34:26;;;;;;;5.60;5.13;;;;;;;24.15;52.01;94393.94;6153835;28;104039;-64
2022/06/10 08:37:29;;;;;;;5.80;5.40;;;;;;;24.13;52.06;94398.06;6160390;28;103196;-64
2022/06/10 08:40:40;;;;;;;6.67;6.20;;;;;;;24.05;52.34;94402.41;6160245;28;104298;-65
2022/06/10 08:43:56;;;;;;;6.70;6.20;;;;;;;23.98;52.34;94407.50;6153627;28;104554;-64
2022/06/10 08:47:27;;;;;;;6.50;6.00;;;;;;;23.94;52.01;94413.84;6164428;28;103000;-64
2022/06/10 08:51:05;;;;;;;7.40;6.80;;;;;;;23.89;53.60;94412.97;6163823;28;102969;-64
2022/06/10 08:54:16;;;;;;;6.50;6.00;;;;;;;23.95;53.20;94416.19;6169731;28;103073;-64
2022/06/10 08:57:27;;;;;;;6.37;5.90;;;;;;;24.00;52.86;94420.56;6182541;28;103017;-64
2022/06/10 09:00:36;;;;;;;6.03;5.63;;;;;;;24.06;52.38;94413.91;6188704;28;103028;-64
2022/06/10 09:03:45;;;;;;;5.90;5.50;;;;;;;24.11;52.24;94419.78;6188436;28;104144;-64
2022/06/10 09:06:51;;;;;;;6.43;5.93;;;;;;;24.00;52.37;94415.22;6177731;28;102982;-65
2022/06/10 09:09:55;;;;;;;6.40;5.97;;;;;;;23.78;52.29;94419.06;6188360;28;103213;-64
2022/06/10 09:13:19;;;;;;;5.73;5.33;;;;;;;23.80;52.10;94412.25;6188250;28;103304;-64
2022/06/10 09:16:28;;;;;;;8.73;7.97;;;;;;;23.82;52.82;94410.03;6187568;28;103126;-64
2022/06/10 09:19:41;;;;;;;7.57;7.07;;;;;;;23.69;53.24;94408.47;6178248;28;103316;-64
2022/06/10 09:22:52;;;;;;;6.50;6.00;;;;;;;23.58;53.37;94413.44;6188416;28;103482;-64
2022/06/10 09:26:00;;;;;;;7.07;6.50;;;;;;;23.45;53.40;94414.53;6187717;28;103450;-64
2022/06/10 09:29:04;;;;;;;6.37;5.87;;;;;;;23.46;53.16;94409.97;6179968;28;104614;-64
2022/06/10 09:32:11;;;;;;;5.50;5.13;;;;;;;23.54;53.07;94411.78;6188634;28;104134;-64
2022/06/10 09:35:25;;;;;;;6.33;5.73;;;;;;;23.69;53.29;94413.81;6188014;28;103437;-64
2022/06/10 09:38:37;;;;;;;5.70;5.30;;;;;;;23.41;53.82;94420.84;6189492;28;104370;-64
2022/06/10 09:41:47;;;;;;;5.20;4.90;;;;;;;23.21;54.06;94422.44;6177130;28;104278;-64
2022/06/10 09:44:56;;;;;;;6.23;5.73;;;;;;;23.38;53.02;94422.31;6187655;28;103415;-64
2022/06/10 09:48:20;;;;;;;6.13;5.53;;;;;;;23.53;53.49;94419.00;6186891;28;103264;-64
2022/06/10 09:51:32;;;;;;;6.20;5.80;;;;;;;23.61;52.92;94422.69;6180490;28;103103;-65
2022/06/10 09:54:50;;;;;;;6.20;5.80;;;;;;;23.68;52.47;94430.94;6173661;28;103192;-64
2022/06/10 09:58:04;;;;;;;7.03;6.53;;;;;;;23.72;53.25;94434.53;6162795;28;103156;-64
2022/06/10 10:04:32;;;;;;;6.03;5.63;;;;;;;23.67;53.51;94448.06;6228932;22;104888;-68
2022/06/10 10:07:48;;;;;;;6.37;5.87;;;;;;;23.70;52.75;94454.66;6188642;28;103089;-68
2022/06/10 10:10:54;;;;;;;5.63;5.30;;;;;;;23.74;52.88;94461.69;6188829;28;103299;-68
2022/06/10 10:14:08;;;;;;;5.60;5.10;;;;;;;23.80;52.91;94460.34;6184163;28;105786;-69
2022/06/10 10:17:34;;;;;;;6.50;6.00;;;;;;;23.85;52.67;94464.69;6185796;28;103026;-69
2022/06/10 10:20:56;;;;;;;5.13;4.73;;;;;;;23.87;52.84;94468.63;6187272;28;103327;-68
2022/06/10 10:24:01;;;;;;;6.07;5.57;;;;;;;23.86;53.01;94476.97;6187385;28;103115;-69
2022/06/10 10:27:11;;;;;;;6.37;5.83;;;;;;;23.88;52.96;94467.50;6178510;28;104765;-69
2022/06/10 10:30:20;;;;;;;5.80;5.30;;;;;;;23.88;52.85;94467.50;6187797;28;103204;-69
2022/06/10 10:33:23;;;;;;;5.73;5.43;;;;;;;23.86;52.90;94466.28;6187895;28;103643;-69
2022/06/10 10:36:35;;;;;;;5.90;5.30;;;;;;;23.88;53.00;94470.19;6182779;28;103210;-69
2022/06/10 10:39:51;;;;;;;5.90;5.50;;;;;;;23.92;53.31;94475.66;6182180;28;103414;-70
2022/06/10 10:42:59;;;;;;;5.50;5.10;;;;;;;23.91;53.44;94471.41;6187964;28;102890;-69
2022/06/10 10:46:06;;;;;;;5.87;5.40;;;;;;;23.94;53.04;94473.41;6187208;28;103062;-68
2022/06/10 10:49:23;;;;;;;5.20;4.70;;;;;;;23.95;53.87;94463.50;6178244;28;103533;-69
2022/06/10 10:52:29;;;;;;;6.40;5.80;;;;;;;23.89;54.68;94462.94;6186322;28;103171;-69
2022/06/10 10:55:37;;;;;;;6.27;5.67;;;;;;;23.88;54.45;94462.16;6166027;28;103571;-68
2022/06/10 10:58:47;;;;;;;6.60;5.90;;;;;;;23.92;54.75;94464.19;6162779;28;103831;-69
2022/06/10 11:01:51;;;;;;;5.90;5.50;;;;;;;23.89;54.37;94468.28;6154076;28;102995;-68
2022/06/10 11:05:18;;;;;;;6.10;5.60;;;;;;;23.90;55.01;94464.50;6162166;28;103433;-67
2022/06/10 11:08:25;;;;;;;5.73;5.33;;;;;;;23.86;55.16;94467.06;6163050;28;105815;-68
2022/06/10 11:11:32;;;;;;;6.20;5.70;;;;;;;23.87;54.81;94465.97;6153065;28;103087;-68
2022/06/10 11:14:47;;;;;;;6.40;5.90;;;;;;;23.87;54.33;94470.53;6162217;28;103054;-68
2022/06/10 11:17:51;;;;;;;5.10;4.80;;;;;;;23.85;54.79;94454.78;6161242;28;103174;-68
2022/06/10 11:21:01;;;;;;;5.70;5.30;;;;;;;23.86;54.83;94456.38;6162080;28;103710;-68
2022/06/10 11:24:15;;;;;;;5.50;5.10;;;;;;;23.87;55.05;94463.28;6150515;28;103123;-69
2022/06/10 11:27:31;;;;;;;5.80;5.30;;;;;;;23.91;54.69;94452.72;6161793;28;103284;-68
2022/06/10 11:30:42;;;;;;;5.73;5.23;;;;;;;23.92;54.73;94448.16;6161505;28;103214;-68
2022/06/10 11:33:48;;;;;;;5.77;5.20;;;;;;;23.95;54.64;94456.28;6152201;28;103711;-68
2022/06/10 11:36:54;;;;;;;5.33;4.93;;;;;;;23.94;55.06;94445.91;6161691;28;103180;-68
2022/06/10 11:40:06;;;;;;;5.43;5.03;;;;;;;23.97;54.81;94453.25;6161052;28;103353;-67
2022/06/10 11:43:19;;;;;;;5.00;4.70;;;;;;;23.97;55.18;94454.03;6161490;28;105322;-67
2022/06/10 11:46:28;;;;;;;4.63;4.33;;;;;;;23.98;54.81;94449.47;6152279;28;104935;-67
2022/06/10 11:49:37;;;;;;;5.23;4.80;;;;;;;23.98;54.98;94447.59;6161478;28;102691;-67
2022/06/10 11:52:50;;;;;;;5.40;4.90;;;;;;;23.99;55.05;94445.69;6162227;28;106217;-67
2022/06/10 11:59:42;;;;;;;5.37;4.50;;;;;;;23.98;54.88;94434.22;6133839;28;103413;-68
2022/06/10 12:02:58;;;;;;;6.83;5.27;;;;;;;24.05;54.90;94439.06;6135919;28;104003;-68
2022/06/10 12:06:07;;;;;;;5.00;4.60;;;;;;;24.05;54.98;94428.38;6137633;28;102718;-67
2022/06/10 12:09:18;;;;;;;6.70;4.70;;;;;;;24.09;54.59;94429.25;6127942;28;102846;-68
2022/06/10 12:12:25;;;;;;;5.27;4.83;;;;;;;24.11;54.86;94427.81;6137686;28;103017;-68
2022/06/10 12:15:36;;;;;;;5.40;5.00;;;;;;;24.12;54.57;94416.00;6155600;28;103307;-67
2022/06/10 12:18:47;;;;;;;5.23;4.90;;;;;;;24.15;54.93;94415.31;6161176;28;103058;-67
2022/06/10 12:21:51;;;;;;;10.07;9.27;;;;;;;24.15;55.04;94417.22;6161693;28;103007;-68
2022/06/10 12:24:54;;;;;;;7.80;7.20;;;;;;;24.16;54.35;94414.22;6165668;28;102905;-67
2022/06/10 12:28:05;;;;;;;7.27;6.77;;;;;;;24.17;54.01;94407.75;6164897;28;103977;-68
2022/06/10 12:31:21;;;;;;;8.43;7.83;;;;;;;24.17;54.67;94405.06;6155469;28;103242;-68
2022/06/10 12:34:47;;;;;;;7.27;6.77;;;;;;;24.18;54.29;94401.28;6166082;28;105724;-68
2022/06/10 12:37:55;;;;;;;6.53;6.03;;;;;;;24.18;54.26;94403.97;6164827;28;103196;-68
2022/06/10 12:41:03;;;;;;;7.40;6.90;;;;;;;24.18;54.39;94405.84;6164731;28;103029;-69
2022/06/10 12:44:13;;;;;;;6.53;6.13;;;;;;;24.20;53.91;94403.66;6158298;28;103005;-68
2022/06/10 12:47:24;;;;;;;6.10;5.70;;;;;;;24.19;53.80;94400.19;6164272;28;103290;-68
2022/06/10 12:50:31;;;;;;;6.53;6.10;;;;;;;24.20;53.75;94392.97;6165173;28;103853;-68
2022/06/10 12:53:48;;;;;;;5.83;5.43;;;;;;;24.19;53.98;94397.53;6154447;28;102948;-67
2022/06/10 12:57:29;;;;;;;6.30;5.80;;;;;;;24.22;54.37;94401.41;6165668;28;102932;-67
2022/06/10 13:00:42;;;;;;;7.77;7.17;;;;;;;24.22;53.75;94401.41;6164484;28;103554;-68
2022/06/10 13:03:49;;;;;;;9.60;8.87;;;;;;;24.23;53.91;94408.31;6161499;28;103724;-70
2022/06/10 13:07:00;;;;;;;10.67;9.83;;;;;;;24.20;53.62;94409.00;6159051;28;103276;-68
2022/06/10 13:10:40;;;;;;;9.10;8.30;;;;;;;24.18;53.53;94403.19;6164137;28;102955;-67
2022/06/10 13:13:45;;;;;;;7.73;7.07;;;;;;;24.16;53.10;94405.41;6164451;28;103026;-67
2022/06/10 13:17:06;;;;;;;8.30;7.60;;;;;;;24.16;52.77;94395.50;6155499;28;103906;-67
2022/06/10 13:20:21;;;;;;;8.17;7.53;;;;;;;24.17;52.55;94393.59;6165331;28;103465;-67
2022/06/10 13:23:25;;;;;;;8.10;7.50;;;;;;;24.24;52.85;94388.50;6164169;28;102799;-69
2022/06/10 13:26:31;;;;;;;8.03;7.43;;;;;;;24.34;53.09;94390.69;6161457;28;102995;-68
2022/06/10 13:29:34;;;;;;;8.87;8.17;;;;;;;24.15;52.86;94388.59;6158054;28;103461;-67
2022/06/10 13:32:41;;;;;;;8.23;7.63;;;;;;;24.14;52.67;94384.38;6163146;28;103255;-68
2022/06/10 13:35:55;;;;;;;8.20;7.50;;;;;;;24.16;52.40;94379.47;6164743;28;104974;-68
2022/06/10 13:38:59;;;;;;;7.70;7.10;;;;;;;24.13;52.26;94366.75;6154180;28;106405;-68
2022/06/10 13:42:05;;;;;;;8.10;7.40;;;;;;;24.15;52.25;94364.53;6163934;28;103186;-65
2022/06/10 13:45:18;;;;;;;8.47;7.87;;;;;;;24.15;51.96;94366.44;6163556;28;103072;-65
2022/06/10 13:48:25;;;;;;;7.23;6.73;;;;;;;24.17;52.08;94364.97;6163707;28;103145;-64
2022/06/10 13:51:38;;;;;;;7.90;7.40;;;;;;;24.17;52.07;94364.97;6153284;28;103065;-67
2022/06/10 13:54:42;;;;;;;7.10;6.60;;;;;;;24.19;52.37;94360.09;6151348;28;103190;-64
2022/06/10 13:57:45;;;;;;;9.00;8.30;;;;;;;24.19;52.15;94367.31;6139583;28;103160;-67
2022/06/10 14:00:51;;;;;;;8.10;7.50;;;;;;;24.18;52.06;94374.56;6134325;28;103048;-64
2022/06/10 14:03:57;;;;;;;8.57;7.87;;;;;;;24.20;51.91;94379.59;6133771;28;103438;-64
2022/06/10 14:07:05;;;;;;;7.73;7.13;;;;;;;24.19;51.97;94378.00;6139042;28;103054;-65
2022/06/10 14:10:18;;;;;;;8.67;7.97;;;;;;;24.18;52.11;94377.22;6138900;28;102996;-65
2022/06/10 14:13:24;;;;;;;8.30;7.80;;;;;;;24.15;52.07;94380.56;6128621;28;103204;-67
2022/06/10 14:16:30;;;;;;;7.40;6.80;;;;;;;24.16;52.14;94374.13;6139249;28;103411;-65
2022/06/10 14:19:39;;;;;;;7.47;6.87;;;;;;;24.12;52.21;94378.56;6139269;28;103083;-65
2022/06/10 14:23:01;;;;;;;8.20;7.60;;;;;;;24.12;52.18;94378.56;6139034;28;103310;-65
2022/06/10 14:26:20;;;;;;;7.97;7.37;;;;;;;24.09;52.18;94381.94;6129212;28;103075;-64
2022/06/10 14:29:27;;;;;;;8.03;7.33;;;;;;;24.08;52.48;94385.72;6138485;28;103313;-65
2022/06/10 14:32:32;;;;;;;8.50;7.80;;;;;;;24.06;52.61;94387.16;6138980;28;103250;-64
2022/06/10 14:35:37;;;;;;;13.60;9.97;;;;;;;24.01;52.36;94390.03;6147917;28;103414;-68
2022/06/10 14:38:44;;;;;;;21.57;12.17;;;;;;;24.02;52.60;94386.25;6162343;28;102903;-66
2022/06/10 14:41:58;;;;;;;12.87;8.97;;;;;;;24.00;52.80;94385.81;6162609;28;103150;-67
2022/06/10 14:45:02;;;;;;;8.63;7.80;;;;;;;23.97;52.84;94397.13;6162433;28;103372;-66
2022/06/10 14:48:21;;;;;;;9.20;8.50;;;;;;;24.01;52.84;94395.38;6152681;28;105353;-66